createdAt,value
2022-07-25T00:01:57.628Z,1.60
2022-07-25T00:04:25.972Z,1.88
2022-07-25T00:06:53.771Z,1.60
2022-07-25T00:09:21.514Z,2.10
2022-07-25T00:11:49.132Z,1.88
2022-07-25T00:14:16.800Z,2.78
2022-07-25T00:16:44.353Z,1.90
2022-07-25T00:19:11.875Z,1.75
2022-07-25T00:21:39.558Z,1.77
2022-07-25T00:24:08.039Z,1.98
2022-07-25T00:26:39.997Z,2.25
2022-07-25T00:29:08.418Z,1.90
2022-07-25T00:31:36.276Z,1.77
2022-07-25T00:34:04.614Z,1.90
2022-07-25T00:36:32.474Z,2.35
2022-07-25T00:39:00.206Z,2.53
2022-07-25T00:41:27.862Z,2.22
2022-07-25T00:43:55.347Z,2.28
2022-07-25T00:46:23.207Z,2.70
2022-07-25T00:48:51.615Z,2.60
2022-07-25T00:51:19.493Z,2.13
2022-07-25T00:53:47.637Z,2.35
2022-07-25T00:56:17.004Z,2.95
2022-07-25T00:58:45.678Z,2.58
2022-07-25T01:01:13.398Z,2.40
2022-07-25T01:03:41.030Z,2.50
2022-07-25T01:06:09.087Z,2.92
2022-07-25T01:08:37.418Z,3.00
2022-07-25T01:11:05.419Z,2.00
2022-07-25T01:13:34.572Z,2.55
2022-07-25T01:16:02.318Z,2.40
2022-07-25T01:18:30.074Z,2.63
2022-07-25T01:20:57.986Z,2.17
2022-07-25T01:23:25.581Z,2.70
2022-07-25T01:25:53.426Z,2.70
2022-07-25T01:28:21.155Z,2.90
2022-07-25T01:30:49.110Z,2.85
2022-07-25T01:33:18.788Z,2.58
2022-07-25T01:35:47.252Z,2.50
2022-07-25T01:38:15.196Z,2.25
2022-07-25T01:40:43.691Z,2.80
2022-07-25T01:43:11.979Z,2.28
2022-07-25T01:45:39.547Z,3.03
2022-07-25T01:48:07.723Z,3.38
2022-07-25T01:50:35.254Z,2.75
2022-07-25T01:53:03.003Z,2.60
2022-07-25T01:55:30.518Z,3.00
2022-07-25T01:57:59.938Z,3.15
2022-07-25T02:00:28.227Z,3.03
2022-07-25T02:03:14.253Z,3.00
2022-07-25T02:05:42.229Z,2.95
2022-07-25T02:08:09.920Z,2.70
2022-07-25T02:10:39.485Z,2.70
2022-07-25T02:13:06.990Z,3.10
2022-07-25T02:15:36.051Z,2.92
2022-07-25T02:18:03.690Z,3.00
2022-07-25T02:20:31.182Z,2.90
2022-07-25T02:22:58.983Z,3.60
2022-07-25T02:25:26.928Z,2.70
2022-07-25T02:27:54.724Z,2.42
2022-07-25T02:30:23.281Z,3.10
2022-07-25T02:32:50.818Z,2.80
2022-07-25T02:35:18.840Z,2.28
2022-07-25T02:37:46.856Z,3.00
2022-07-25T02:40:14.630Z,3.30
2022-07-25T02:42:42.504Z,2.90
2022-07-25T02:45:10.663Z,2.97
2022-07-25T02:47:38.506Z,2.42
2022-07-25T02:50:06.559Z,2.38
2022-07-25T02:52:36.041Z,2.30
2022-07-25T02:55:09.081Z,2.83
2022-07-25T02:57:37.961Z,3.15
2022-07-25T03:00:07.302Z,2.90
2022-07-25T03:02:34.919Z,2.92
2022-07-25T03:05:05.471Z,2.53
2022-07-25T03:07:33.019Z,2.28
2022-07-25T03:10:00.679Z,3.25
2022-07-25T03:12:28.310Z,2.55
2022-07-25T03:14:55.837Z,2.63
2022-07-25T03:17:23.530Z,3.05
2022-07-25T03:19:51.263Z,3.08
2022-07-25T03:22:18.732Z,2.78
2022-07-25T03:24:46.364Z,3.22
2022-07-25T03:27:14.217Z,3.08
2022-07-25T03:29:41.984Z,3.33
2022-07-25T03:32:10.159Z,3.83
2022-07-25T03:34:37.865Z,2.55
2022-07-25T03:37:05.744Z,3.17
2022-07-25T03:39:33.675Z,3.75
2022-07-25T03:42:01.522Z,3.05
2022-07-25T03:44:29.170Z,2.97
2022-07-25T03:46:56.702Z,3.38
2022-07-25T03:49:24.375Z,2.75
2022-07-25T03:51:52.032Z,2.88
2022-07-25T03:54:19.776Z,3.00
2022-07-25T03:56:50.152Z,3.08
2022-07-25T03:59:20.362Z,3.38
2022-07-25T04:01:50.030Z,2.70
2022-07-25T04:04:19.673Z,3.10
2022-07-25T04:06:47.647Z,3.17
2022-07-25T04:09:15.892Z,3.72
2022-07-25T04:11:43.419Z,3.80
2022-07-25T04:14:11.082Z,3.58
2022-07-25T04:16:39.350Z,3.28
2022-07-25T04:19:08.699Z,3.97
2022-07-25T04:21:36.531Z,3.78
2022-07-25T04:24:04.668Z,4.13
2022-07-25T04:26:32.614Z,4.10
2022-07-25T04:29:03.199Z,4.10
2022-07-25T04:31:31.085Z,4.15
2022-07-25T04:33:59.710Z,3.50
2022-07-25T04:36:27.214Z,4.15
2022-07-25T04:38:54.703Z,4.65
2022-07-25T04:41:22.353Z,3.80
2022-07-25T04:43:49.759Z,4.10
2022-07-25T04:46:21.670Z,3.65
2022-07-25T04:48:50.458Z,3.97
2022-07-25T04:51:18.809Z,3.78
2022-07-25T04:53:46.678Z,2.92
2022-07-25T04:56:14.882Z,3.35
2022-07-25T04:58:42.731Z,3.20
2022-07-25T05:01:10.407Z,3.17
2022-07-25T05:03:38.033Z,3.30
2022-07-25T05:06:05.943Z,3.30
2022-07-25T05:08:33.424Z,3.20
2022-07-25T05:11:00.980Z,3.25
2022-07-25T05:13:28.470Z,3.45
2022-07-25T05:15:56.004Z,3.08
2022-07-25T05:18:23.530Z,2.88
2022-07-25T05:20:51.347Z,2.90
2022-07-25T05:23:18.981Z,2.90
2022-07-25T05:25:46.788Z,3.50
2022-07-25T05:28:15.003Z,2.45
2022-07-25T05:30:43.425Z,2.55
2022-07-25T05:33:10.999Z,2.20
2022-07-25T05:35:38.484Z,2.67
2022-07-25T05:38:06.188Z,2.22
2022-07-25T05:40:33.917Z,2.30
2022-07-25T05:43:03.414Z,2.25
2022-07-25T05:47:59.063Z,2.10
2022-07-25T05:50:26.627Z,2.65
2022-07-25T05:52:54.364Z,2.03
2022-07-25T05:55:22.088Z,1.98
2022-07-25T05:57:49.535Z,2.25
2022-07-25T06:00:17.459Z,1.90
2022-07-25T06:02:45.288Z,1.90
2022-07-25T06:05:12.827Z,2.70
2022-07-25T06:07:41.357Z,1.83
2022-07-25T06:10:09.691Z,2.03
2022-07-25T06:12:37.155Z,2.30
2022-07-25T06:15:06.135Z,1.73
2022-07-25T06:17:33.967Z,1.40
2022-07-25T06:20:01.758Z,1.35
2022-07-25T06:22:30.804Z,1.75
2022-07-25T06:24:58.726Z,1.58
2022-07-25T06:27:29.396Z,1.50
2022-07-25T06:29:57.163Z,1.52
2022-07-25T06:32:24.889Z,1.60
2022-07-25T06:34:52.383Z,1.50
2022-07-25T06:37:19.981Z,1.92
2022-07-25T06:39:47.481Z,1.15
2022-07-25T06:42:14.948Z,1.20
2022-07-25T06:44:44.245Z,1.45
2022-07-25T06:47:15.052Z,1.48
2022-07-25T06:49:42.873Z,1.30
2022-07-25T06:52:10.560Z,1.35
2022-07-25T06:54:38.256Z,1.50
2022-07-25T06:57:05.781Z,0.98
2022-07-25T06:59:34.289Z,1.92
2022-07-25T07:02:02.414Z,1.70
2022-07-25T07:04:29.932Z,1.42
2022-07-25T07:06:57.595Z,1.60
2022-07-25T07:09:25.995Z,2.08
2022-07-25T07:11:53.509Z,1.50
2022-07-25T07:14:21.040Z,1.40
2022-07-25T07:16:48.594Z,1.30
2022-07-25T07:19:17.863Z,1.27
2022-07-25T07:21:45.791Z,1.15
2022-07-25T07:24:22.126Z,1.58
2022-07-25T07:26:54.301Z,1.42
2022-07-25T07:29:22.139Z,1.33
2022-07-25T07:31:50.038Z,1.35
2022-07-25T07:34:17.756Z,1.20
2022-07-25T07:36:45.493Z,1.27
2022-07-25T07:39:13.066Z,1.42
2022-07-25T07:41:40.742Z,1.40
2022-07-25T07:44:08.197Z,1.80
2022-07-25T07:46:36.069Z,1.27
2022-07-25T07:49:04.173Z,1.40
2022-07-25T07:51:32.067Z,1.20
2022-07-25T07:54:18.573Z,1.38
2022-07-25T07:56:46.124Z,0.95
2022-07-25T07:59:13.600Z,0.85
2022-07-25T08:01:41.241Z,1.17
2022-07-25T08:04:08.755Z,1.20
2022-07-25T08:06:36.718Z,0.77
2022-07-25T08:09:04.727Z,0.60
2022-07-25T08:11:32.579Z,1.00
2022-07-25T08:14:00.710Z,0.90
2022-07-25T08:16:28.505Z,0.90
2022-07-25T08:18:56.566Z,0.90
2022-07-25T08:21:24.222Z,0.80
2022-07-25T08:23:51.824Z,0.77
2022-07-25T08:26:19.529Z,0.93
2022-07-25T08:28:50.177Z,0.73
2022-07-25T08:31:23.489Z,1.00
2022-07-25T08:33:51.197Z,0.88
2022-07-25T08:36:18.913Z,0.90
2022-07-25T08:38:46.688Z,0.80
2022-07-25T08:41:14.404Z,0.80
2022-07-25T08:43:43.285Z,0.70
2022-07-25T08:46:11.289Z,0.88
2022-07-25T08:48:39.977Z,1.00
2022-07-25T08:51:08.019Z,0.82
2022-07-25T08:53:36.998Z,0.70
2022-07-25T08:56:12.283Z,0.60
2022-07-25T08:58:44.127Z,0.88
2022-07-25T09:01:15.435Z,0.70
2022-07-25T09:03:44.030Z,0.70
2022-07-25T09:06:29.954Z,0.70
2022-07-25T09:09:01.131Z,0.90
2022-07-25T09:11:32.728Z,1.20
2022-07-25T09:14:13.190Z,0.80
2022-07-25T09:16:45.379Z,0.57
2022-07-25T09:19:21.435Z,0.50
2022-07-25T09:22:05.067Z,0.73
2022-07-25T09:24:35.431Z,0.70
2022-07-25T09:27:12.014Z,0.73
2022-07-25T09:29:42.666Z,1.00
2022-07-25T09:32:19.454Z,0.93
2022-07-25T09:34:48.733Z,0.80
2022-07-25T09:37:18.527Z,0.98
2022-07-25T09:39:49.461Z,0.70
2022-07-25T09:42:21.795Z,0.80
2022-07-25T09:44:59.677Z,0.60
2022-07-25T09:47:27.537Z,1.17
2022-07-25T09:49:56.029Z,0.90
2022-07-25T09:52:23.952Z,0.80
2022-07-25T09:54:51.698Z,0.88
2022-07-25T09:57:19.371Z,0.75
2022-07-25T09:59:46.996Z,0.95
2022-07-25T10:02:14.726Z,0.73
2022-07-25T10:04:46.992Z,0.80
2022-07-25T10:07:19.006Z,0.80
2022-07-25T10:09:49.241Z,0.90
2022-07-25T10:12:22.011Z,0.60
2022-07-25T10:15:09.523Z,0.70
2022-07-25T10:17:39.985Z,0.63
2022-07-25T10:20:11.752Z,0.63
2022-07-25T10:22:58.444Z,0.65
2022-07-25T10:25:27.329Z,0.70
2022-07-25T10:28:04.248Z,0.70
2022-07-25T10:30:40.606Z,0.60
2022-07-25T10:33:18.211Z,0.55
2022-07-25T10:35:46.250Z,0.80
2022-07-25T10:38:14.082Z,0.43
2022-07-25T10:40:47.662Z,0.70
2022-07-25T10:43:20.041Z,0.30
2022-07-25T10:45:58.133Z,0.50
2022-07-25T10:48:37.894Z,0.65
2022-07-25T10:51:14.968Z,0.60
2022-07-25T10:53:44.043Z,0.50
2022-07-25T10:56:23.517Z,0.70
2022-07-25T10:58:52.460Z,0.50
2022-07-25T11:01:26.436Z,0.63
2022-07-25T11:03:59.652Z,0.60
2022-07-25T11:06:33.109Z,0.50
2022-07-25T11:09:01.534Z,0.57
2022-07-25T11:11:37.342Z,0.47
2022-07-25T11:14:06.693Z,0.52
2022-07-25T11:16:34.600Z,0.30
2022-07-25T11:19:02.457Z,0.60
2022-07-25T11:21:30.003Z,0.47
2022-07-25T11:23:57.807Z,0.40
2022-07-25T11:26:25.458Z,0.40
2022-07-25T11:28:53.049Z,0.50
2022-07-25T11:31:23.495Z,0.40
2022-07-25T11:33:51.375Z,0.35
2022-07-25T11:36:19.377Z,0.22
2022-07-25T11:38:50.362Z,0.30
2022-07-25T11:41:28.878Z,0.45
2022-07-25T11:43:57.295Z,0.60
2022-07-25T11:46:25.136Z,0.32
2022-07-25T11:49:04.385Z,0.50
2022-07-25T11:51:38.029Z,0.70
2022-07-25T11:54:10.798Z,0.68
2022-07-25T11:56:42.948Z,0.52
2022-07-25T11:59:12.018Z,0.70
2022-07-25T12:01:43.319Z,0.50
2022-07-25T12:04:17.430Z,0.40
2022-07-25T12:06:47.867Z,0.60
2022-07-25T12:09:20.581Z,0.60
2022-07-25T12:11:49.493Z,0.40
2022-07-25T12:14:17.685Z,0.40
2022-07-25T12:16:45.679Z,0.50
2022-07-25T12:19:21.818Z,0.55
2022-07-25T12:21:49.346Z,0.60
2022-07-25T12:24:17.208Z,0.63
2022-07-25T12:26:45.089Z,0.50
2022-07-25T12:29:12.693Z,0.68
2022-07-25T12:31:40.190Z,0.50
2022-07-25T12:34:08.078Z,0.52
2022-07-25T12:36:41.319Z,0.40
2022-07-25T12:39:09.331Z,0.40
2022-07-25T12:41:37.098Z,0.43
2022-07-25T12:44:05.076Z,0.43
2022-07-25T12:46:32.982Z,0.60
2022-07-25T12:49:00.642Z,0.40
2022-07-25T12:51:28.280Z,0.40
2022-07-25T12:53:55.851Z,0.75
2022-07-25T12:56:23.415Z,0.77
2022-07-25T12:58:51.116Z,0.60
2022-07-25T13:01:18.763Z,0.60
2022-07-25T13:03:46.339Z,0.40
2022-07-25T13:06:13.863Z,0.52
2022-07-25T13:08:41.485Z,0.50
2022-07-25T13:11:09.402Z,0.40
2022-07-25T13:13:37.089Z,0.52
2022-07-25T13:16:05.223Z,0.40
2022-07-25T13:18:32.828Z,0.50
2022-07-25T13:21:03.488Z,0.32
2022-07-25T13:23:31.012Z,0.38
2022-07-25T13:26:00.607Z,0.28
2022-07-25T13:28:28.556Z,0.10
2022-07-25T13:30:56.147Z,0.40
2022-07-25T13:33:23.667Z,0.50
2022-07-25T13:35:52.074Z,0.25
2022-07-25T13:38:19.854Z,0.25
2022-07-25T13:40:47.486Z,0.20
2022-07-25T13:43:15.701Z,0.22
2022-07-25T13:45:43.781Z,0.25
2022-07-25T13:48:28.891Z,0.20
2022-07-25T13:50:57.747Z,0.30
2022-07-25T13:53:29.752Z,0.28
2022-07-25T13:55:58.994Z,0.50
2022-07-25T13:58:27.726Z,0.32
2022-07-25T14:00:55.606Z,0.40
2022-07-25T14:03:23.373Z,0.40
2022-07-25T14:05:50.997Z,0.50
2022-07-25T14:08:19.390Z,0.47
2022-07-25T14:10:47.728Z,0.52
2022-07-25T14:13:16.071Z,0.30
2022-07-25T14:15:44.944Z,0.35
2022-07-25T14:18:12.534Z,0.30
2022-07-25T14:20:43.061Z,0.40
2022-07-25T14:23:10.887Z,0.30
2022-07-25T14:25:38.565Z,0.47
2022-07-25T14:28:06.193Z,0.32
2022-07-25T14:30:33.911Z,0.25
2022-07-25T14:33:01.652Z,0.40
2022-07-25T14:35:32.509Z,0.60
2022-07-25T14:38:00.530Z,0.47
2022-07-25T14:40:28.287Z,0.40
2022-07-25T14:42:56.101Z,0.40
2022-07-25T14:45:24.255Z,0.40
2022-07-25T14:47:51.956Z,0.40
2022-07-25T14:50:19.619Z,0.73
2022-07-25T14:52:47.372Z,0.50
2022-07-25T14:55:15.175Z,0.52
2022-07-25T14:57:45.275Z,0.52
2022-07-25T15:00:13.358Z,0.50
2022-07-25T15:02:41.399Z,0.80
2022-07-25T15:05:09.651Z,0.32
2022-07-25T15:07:38.044Z,0.50
2022-07-25T15:10:06.826Z,0.65
2022-07-25T15:12:34.471Z,0.50
2022-07-25T15:15:02.253Z,0.57
2022-07-25T15:18:18.780Z,0.60
2022-07-25T15:20:48.561Z,0.70
2022-07-25T15:23:16.416Z,0.80
2022-07-25T15:28:38.081Z,0.70
2022-07-25T15:31:06.731Z,0.50
2022-07-25T15:33:34.531Z,0.63
2022-07-25T15:36:02.751Z,0.70
2022-07-25T15:38:30.982Z,0.60
2022-07-25T15:40:59.051Z,0.60
2022-07-25T15:43:27.715Z,0.82
2022-07-25T15:45:55.441Z,0.50
2022-07-25T15:48:23.729Z,0.70
2022-07-25T15:50:51.911Z,0.80
2022-07-25T15:53:20.170Z,0.50
2022-07-25T15:55:47.608Z,0.60
2022-07-25T15:58:15.433Z,0.60
2022-07-25T16:00:43.757Z,0.77
2022-07-25T16:03:11.681Z,0.77
2022-07-25T16:05:39.940Z,0.85
2022-07-25T16:08:08.468Z,0.60
2022-07-25T16:10:36.214Z,0.60
2022-07-25T16:13:04.326Z,0.57
2022-07-25T16:15:32.543Z,0.63
2022-07-25T16:18:03.049Z,0.70
2022-07-25T16:20:32.351Z,0.70
2022-07-25T16:23:00.713Z,1.00
2022-07-25T16:25:29.497Z,1.10
2022-07-25T16:27:58.873Z,0.90
2022-07-25T16:30:27.974Z,0.73
2022-07-25T16:32:55.866Z,1.02
2022-07-25T16:35:24.255Z,1.42
2022-07-25T16:37:51.838Z,0.80
2022-07-25T16:40:19.508Z,0.80
2022-07-25T16:42:49.752Z,0.85
2022-07-25T16:45:17.345Z,0.90
2022-07-25T16:47:44.978Z,0.90
2022-07-25T16:50:12.534Z,0.82
2022-07-25T16:52:40.179Z,0.70
2022-07-25T16:55:08.445Z,1.10
2022-07-25T16:57:37.784Z,0.60
2022-07-25T17:00:08.117Z,0.80
2022-07-25T17:02:35.627Z,0.80
2022-07-25T17:05:03.608Z,0.88
2022-07-25T17:07:31.808Z,0.90
2022-07-25T17:10:00.063Z,0.82
2022-07-25T17:12:27.633Z,0.82
2022-07-25T17:14:55.153Z,0.90
2022-07-25T17:17:22.758Z,0.80
2022-07-25T17:19:50.268Z,1.27
2022-07-25T17:22:18.054Z,0.88
2022-07-25T17:24:45.667Z,0.63
2022-07-25T17:27:13.353Z,0.90
2022-07-25T17:29:42.133Z,0.85
2022-07-25T17:32:13.412Z,0.70
2022-07-25T17:34:41.228Z,0.90
2022-07-25T17:37:09.133Z,0.77
2022-07-25T17:39:37.441Z,1.00
2022-07-25T17:42:07.418Z,1.05
2022-07-25T17:44:35.498Z,1.10
2022-07-25T17:47:04.342Z,1.35
2022-07-25T17:49:31.958Z,0.95
2022-07-25T17:51:59.506Z,1.33
2022-07-25T17:54:27.208Z,1.90
2022-07-25T17:56:54.842Z,2.00
2022-07-25T17:59:22.374Z,1.27
2022-07-25T18:01:50.027Z,1.20
2022-07-25T18:04:18.315Z,0.98
2022-07-25T18:06:45.992Z,1.10
2022-07-25T18:09:20.229Z,1.40
2022-07-25T18:11:47.740Z,1.70
2022-07-25T18:14:15.376Z,1.30
2022-07-25T18:16:45.253Z,1.33
2022-07-25T18:19:13.300Z,1.63
2022-07-25T18:21:41.011Z,1.40
2022-07-25T18:24:09.730Z,1.40
2022-07-25T18:26:40.197Z,0.93
2022-07-25T18:29:08.603Z,1.08
2022-07-25T18:31:36.744Z,0.60
2022-07-25T18:34:04.498Z,0.60
2022-07-25T18:36:32.413Z,0.63
2022-07-25T18:39:00.232Z,0.60
2022-07-25T18:41:29.522Z,0.50
2022-07-25T18:43:57.549Z,0.50
2022-07-25T18:46:25.644Z,0.40
2022-07-25T18:48:53.758Z,0.70
2022-07-25T18:51:21.756Z,0.60
2022-07-25T18:53:49.686Z,0.40
2022-07-25T18:56:17.605Z,0.82
2022-07-25T18:58:45.738Z,0.70
2022-07-25T19:01:14.042Z,0.60
2022-07-25T19:03:41.819Z,0.80
2022-07-25T19:06:09.842Z,0.65
2022-07-25T19:08:38.470Z,0.60
2022-07-25T19:11:10.285Z,0.68
2022-07-25T19:13:49.384Z,0.70
2022-07-25T19:16:18.883Z,0.70
2022-07-25T19:18:47.492Z,0.70
2022-07-25T19:21:15.553Z,0.80
2022-07-25T19:23:49.760Z,0.75
2022-07-25T19:26:19.912Z,0.77
2022-07-25T19:28:47.675Z,0.73
2022-07-25T19:31:15.808Z,1.27
2022-07-25T19:33:45.879Z,0.95
2022-07-25T19:36:14.198Z,1.10
2022-07-25T19:38:42.139Z,1.23
2022-07-25T19:41:10.064Z,0.90
2022-07-25T19:43:41.742Z,1.08
2022-07-25T19:46:09.800Z,0.90
2022-07-25T19:48:41.054Z,0.85
2022-07-25T19:51:15.163Z,0.90
2022-07-25T19:53:44.922Z,0.93
2022-07-25T19:56:12.572Z,0.70
2022-07-25T19:58:41.150Z,0.90
2022-07-25T20:01:16.230Z,0.80
2022-07-25T20:03:44.750Z,0.65
2022-07-25T20:06:13.220Z,0.70
2022-07-25T20:08:43.520Z,0.77
2022-07-25T20:11:13.488Z,0.70
2022-07-25T20:13:41.259Z,0.70
2022-07-25T20:16:10.437Z,0.60
2022-07-25T20:18:38.033Z,1.02
2022-07-25T20:21:06.808Z,0.50
2022-07-25T20:23:34.517Z,0.50
2022-07-25T20:26:02.606Z,0.63
2022-07-25T20:28:30.467Z,0.63
2022-07-25T20:30:58.301Z,0.60
2022-07-25T20:33:27.230Z,0.60
2022-07-25T20:35:55.070Z,0.65
2022-07-25T20:38:32.422Z,0.90
2022-07-25T20:41:01.085Z,0.60
2022-07-25T20:43:29.847Z,0.70
2022-07-25T20:45:57.677Z,0.68
2022-07-25T20:48:25.812Z,0.80
2022-07-25T20:50:54.025Z,0.65
2022-07-25T20:53:21.628Z,0.63
2022-07-25T20:55:49.753Z,0.60
2022-07-25T20:58:17.519Z,0.85
2022-07-25T21:00:46.050Z,0.65
2022-07-25T21:03:13.623Z,0.50
2022-07-25T21:05:43.375Z,0.70
2022-07-25T21:08:11.456Z,0.90
2022-07-25T21:10:39.721Z,0.80
2022-07-25T21:13:07.264Z,0.90
2022-07-25T21:15:37.564Z,0.82
2022-07-25T21:18:05.286Z,0.80
2022-07-25T21:20:32.980Z,0.68
2022-07-25T21:23:00.712Z,1.00
2022-07-25T21:25:28.563Z,0.82
2022-07-25T21:27:56.180Z,0.93
2022-07-25T21:30:23.904Z,0.90
2022-07-25T21:32:51.543Z,0.90
2022-07-25T21:35:19.143Z,0.73
2022-07-25T21:37:47.252Z,0.75
2022-07-25T21:40:15.235Z,0.90
2022-07-25T21:42:42.928Z,0.90
2022-07-25T21:45:11.099Z,0.82
2022-07-25T21:47:38.866Z,0.90
2022-07-25T21:50:26.066Z,0.73
2022-07-25T21:52:54.458Z,0.80
2022-07-25T21:55:22.466Z,0.80
2022-07-25T21:57:51.581Z,0.70
2022-07-25T22:00:20.227Z,0.90
2022-07-25T22:02:48.159Z,0.70
2022-07-25T22:05:17.163Z,0.80
2022-07-25T22:07:47.506Z,0.80
2022-07-25T22:10:17.113Z,0.63
2022-07-25T22:12:45.257Z,0.57
2022-07-25T22:15:13.624Z,0.70
2022-07-25T22:17:48.378Z,0.80
2022-07-25T22:20:19.535Z,0.50
2022-07-25T22:22:48.269Z,0.60
2022-07-25T22:25:17.015Z,0.57
2022-07-25T22:27:47.859Z,0.55
2022-07-25T22:30:19.250Z,0.60
2022-07-25T22:32:48.899Z,1.15
2022-07-25T22:35:17.455Z,0.45
2022-07-25T22:37:45.954Z,0.98
2022-07-25T22:40:13.523Z,0.38
2022-07-25T22:42:41.480Z,0.50
2022-07-25T22:45:09.901Z,0.80
2022-07-25T22:47:38.140Z,0.52
2022-07-25T22:50:07.041Z,0.70
2022-07-25T22:52:35.190Z,0.47
2022-07-25T22:55:03.253Z,0.38
2022-07-25T22:57:37.026Z,0.60
2022-07-25T23:00:07.995Z,0.55
2022-07-25T23:02:35.897Z,0.73
2022-07-25T23:05:04.995Z,0.82
2022-07-25T23:07:33.453Z,0.80
2022-07-25T23:10:01.993Z,0.40
2022-07-25T23:12:29.514Z,0.57
2022-07-25T23:14:57.309Z,0.38
2022-07-25T23:17:25.167Z,0.82
2022-07-25T23:19:54.545Z,0.75
2022-07-25T23:22:24.232Z,0.60
2022-07-25T23:24:51.863Z,0.60
2022-07-25T23:27:19.482Z,0.70
2022-07-25T23:29:47.252Z,0.43
2022-07-25T23:32:15.022Z,0.60
2022-07-25T23:34:43.811Z,0.50
2022-07-25T23:37:11.608Z,0.90
2022-07-25T23:39:39.309Z,0.88
2022-07-25T23:42:07.003Z,1.08
2022-07-25T23:44:34.528Z,0.82
2022-07-25T23:47:04.529Z,0.70
2022-07-25T23:49:36.254Z,0.52
2022-07-25T23:52:04.128Z,0.63
2022-07-25T23:54:34.832Z,0.60
2022-07-25T23:57:02.931Z,0.70
2022-07-25T23:59:30.559Z,0.55
